Time;durP1;ratioP1;P1;durP2;ratioP2;P2;SDS_P1;SDS_P2;PMS_P1;PMS_P2;Temp;Humidity;BMP_temperature;BMP_pressure;BME280_temperature;BME280_humidity;BME280_pressure;Samples;Min_cycle;Max_cycle;Signal;HPM_P1;HPM_P2
2024/01/29 00:00:38;;;;;;;30.52;11.55;;;;;;;9.77;79.65;100558.97;4981822;28;20522;-54
2024/01/29 00:03:05;;;;;;;17.92;7.30;;;;;;;9.76;78.98;100558.06;4985793;28;20087;-56
2024/01/29 00:05:32;;;;;;;24.73;8.25;;;;;;;9.79;79.23;100557.22;4987225;28;20050;-58
2024/01/29 00:07:59;;;;;;;20.52;7.22;;;;;;;9.79;79.35;100554.66;4984792;28;20057;-52
2024/01/29 00:10:26;;;;;;;21.75;7.50;;;;;;;9.82;79.79;100558.97;4982849;28;20046;-54
2024/01/29 00:12:53;;;;;;;23.88;8.55;;;;;;;9.82;79.04;100561.56;4982757;28;20059;-55
2024/01/29 00:15:20;;;;;;;21.00;7.22;;;;;;;9.83;79.61;100552.97;4986106;28;20057;-54
2024/01/29 00:17:47;;;;;;;22.15;7.85;;;;;;;9.85;80.04;100562.47;4981975;28;20085;-54
2024/01/29 00:20:13;;;;;;;25.98;8.57;;;;;;;9.89;79.68;100565.94;4986860;28;20050;-54
2024/01/29 00:22:40;;;;;;;22.83;6.65;;;;;;;9.87;79.99;100562.50;4980800;28;20057;-53
2024/01/29 00:25:08;;;;;;;21.25;8.15;;;;;;;9.91;80.05;100556.47;4981218;28;20058;-54
2024/01/29 00:27:34;;;;;;;21.25;8.32;;;;;;;9.91;80.20;100551.31;4985954;28;20089;-56
2024/01/29 00:30:01;;;;;;;16.02;5.85;;;;;;;9.90;79.83;100549.59;4982677;28;20057;-57
2024/01/29 00:32:29;;;;;;;21.25;7.55;;;;;;;9.94;79.97;100550.47;4986524;28;20108;-55
2024/01/29 00:34:56;;;;;;;17.20;5.30;;;;;;;9.94;79.27;100551.34;4986432;28;20046;-53
2024/01/29 00:37:23;;;;;;;22.27;7.50;;;;;;;9.93;80.11;100549.59;4982601;28;20570;-52
2024/01/29 00:39:50;;;;;;;19.35;6.65;;;;;;;9.94;80.16;100546.16;4986312;28;20053;-53
2024/01/29 00:42:18;;;;;;;19.30;8.50;;;;;;;9.94;80.16;100548.75;4983868;28;20185;-54
2024/01/29 00:44:45;;;;;;;22.27;8.93;;;;;;;9.97;79.96;100560.84;4985780;28;20070;-57
2024/01/29 00:47:11;;;;;;;25.33;8.63;;;;;;;9.96;80.17;100559.13;4991041;28;20046;-54
2024/01/29 00:49:38;;;;;;;22.42;8.52;;;;;;;9.98;80.29;100568.63;4990336;28;20046;-50
2024/01/29 00:52:06;;;;;;;22.90;8.05;;;;;;;10.01;80.63;100568.66;4991303;28;20046;-51
2024/01/29 00:54:33;;;;;;;25.73;7.38;;;;;;;10.01;80.26;100566.06;4991770;28;20559;-52
2024/01/29 00:57:00;;;;;;;31.42;11.60;;;;;;;10.03;80.60;100571.22;4988135;28;20047;-51
2024/01/29 00:59:27;;;;;;;23.77;8.57;;;;;;;10.05;80.30;100568.66;4989342;28;20050;-53
2024/01/29 01:01:54;;;;;;;28.05;10.20;;;;;;;10.05;80.03;100569.53;4990138;28;20050;-54
2024/01/29 01:04:22;;;;;;;30.00;11.20;;;;;;;10.07;80.45;100572.13;4994998;28;20109;-53
2024/01/29 01:06:49;;;;;;;26.05;8.30;;;;;;;10.07;80.84;100572.13;4989894;28;20530;-55
2024/01/29 01:09:15;;;;;;;23.05;9.63;;;;;;;10.08;80.61;100568.69;4987300;28;20141;-51
2024/01/29 01:11:42;;;;;;;30.55;11.07;;;;;;;10.10;80.58;100577.34;4988733;28;20074;-52
2024/01/29 01:14:09;;;;;;;32.30;9.98;;;;;;;10.10;80.81;100562.66;4989952;28;20042;-53
2024/01/29 01:16:36;;;;;;;27.85;11.02;;;;;;;10.12;80.99;100573.03;4987749;28;20061;-54
2024/01/29 01:19:02;;;;;;;31.15;8.80;;;;;;;10.15;80.20;100570.47;4984460;28;20411;-56
2024/01/29 01:21:29;;;;;;;29.77;11.57;;;;;;;10.15;80.09;100576.53;4985973;28;20061;-55
2024/01/29 01:23:56;;;;;;;32.78;8.88;;;;;;;10.16;80.66;100577.38;4989702;28;20051;-53
2024/01/29 01:26:23;;;;;;;34.80;12.20;;;;;;;10.18;80.38;100580.84;4988881;28;20536;-58
2024/01/29 01:28:49;;;;;;;33.08;9.52;;;;;;;10.18;80.49;100575.66;4975682;28;20050;-51
2024/01/29 01:31:16;;;;;;;28.13;9.45;;;;;;;10.19;80.71;100569.63;4980612;28;20613;-55
2024/01/29 01:33:43;;;;;;;28.33;10.70;;;;;;;10.20;80.30;100563.59;4989300;28;20154;-52
2024/01/29 01:36:10;;;;;;;32.55;10.75;;;;;;;10.19;80.66;100555.81;4988521;28;20053;-52
2024/01/29 01:38:36;;;;;;;27.15;9.02;;;;;;;10.18;81.10;100562.72;4981526;28;20046;-55
2024/01/29 01:41:03;;;;;;;28.35;8.73;;;;;;;10.18;81.05;100562.72;4989910;28;20050;-53
2024/01/29 01:43:30;;;;;;;24.42;8.10;;;;;;;10.18;80.77;100560.13;4987202;28;20053;-53
2024/01/29 01:48:34;;;;;;;21.05;8.05;;;;;;;10.18;81.16;100564.44;5098584;27;20391;-55
2024/01/29 01:51:02;;;;;;;28.45;8.55;;;;;;;10.17;80.86;100563.59;5060483;28;20052;-51
2024/01/29 01:53:31;;;;;;;35.25;10.32;;;;;;;10.21;80.86;100570.53;5062971;28;20045;-54
2024/01/29 01:56:00;;;;;;;28.65;9.65;;;;;;;10.19;81.75;100577.41;5066441;28;20071;-50
2024/01/29 01:58:29;;;;;;;20.38;8.18;;;;;;;10.20;81.31;100579.13;5059567;28;20076;-53
2024/01/29 02:00:56;;;;;;;29.88;8.60;;;;;;;10.21;81.43;100578.28;5061266;28;20063;-54
2024/01/29 02:03:26;;;;;;;25.73;7.90;;;;;;;10.21;81.90;100575.69;5072758;28;20055;-50
2024/01/29 02:05:54;;;;;;;25.05;7.65;;;;;;;10.22;81.16;100577.44;5084506;28;20059;-50
2024/01/29 02:08:21;;;;;;;29.80;8.65;;;;;;;10.24;81.89;100580.88;5070202;28;20504;-56
2024/01/29 02:10:49;;;;;;;22.02;6.97;;;;;;;10.22;81.39;100587.78;5076996;28;20090;-54
2024/01/29 02:13:17;;;;;;;28.48;7.88;;;;;;;10.22;81.51;100582.59;5083537;28;20410;-54
2024/01/29 02:15:44;;;;;;;24.02;9.65;;;;;;;10.23;82.17;100583.47;5082902;27;20043;-55
2024/01/29 02:18:10;;;;;;;28.88;8.57;;;;;;;10.22;82.32;100585.19;5088464;28;20501;-55
2024/01/29 02:20:37;;;;;;;30.92;9.20;;;;;;;10.23;82.06;100589.50;5082098;28;20052;-54
2024/01/29 02:23:04;;;;;;;32.85;8.93;;;;;;;10.24;81.52;100599.00;5081671;28;20044;-56
2024/01/29 02:25:33;;;;;;;29.77;9.73;;;;;;;10.26;82.24;100602.47;5084105;28;20052;-51
2024/01/29 02:28:00;;;;;;;30.42;9.07;;;;;;;10.28;81.41;100605.09;5083137;27;20101;-55
2024/01/29 02:30:27;;;;;;;30.45;9.35;;;;;;;10.28;81.71;100616.31;5083475;28;20082;-55
2024/01/29 02:32:54;;;;;;;28.75;8.30;;;;;;;10.29;81.29;100612.88;5077025;28;20094;-53
2024/01/29 02:35:23;;;;;;;28.65;9.05;;;;;;;10.29;81.16;100615.44;5079721;28;20489;-55
2024/01/29 02:37:51;;;;;;;34.72;10.88;;;;;;;10.31;81.49;100609.41;5080693;28;20076;-53
2024/01/29 02:40:19;;;;;;;26.05;9.52;;;;;;;10.32;81.36;100613.72;5084196;28;20447;-53
2024/01/29 02:42:46;;;;;;;31.17;9.15;;;;;;;10.33;81.29;100610.31;5088917;28;20059;-54
2024/01/29 02:45:13;;;;;;;30.33;9.10;;;;;;;10.30;81.79;100600.75;5087979;28;20109;-57
2024/01/29 02:47:41;;;;;;;32.55;9.07;;;;;;;10.30;82.35;100605.94;5073854;28;20052;-52
2024/01/29 02:50:08;;;;;;;30.98;9.57;;;;;;;10.30;81.77;100605.94;5066647;28;20049;-57
2024/01/29 02:52:35;;;;;;;25.27;7.25;;;;;;;10.28;81.69;100607.66;5071412;28;20515;-54
2024/01/29 02:55:02;;;;;;;24.85;7.38;;;;;;;10.27;81.62;100601.63;5083191;28;20536;-55
2024/01/29 02:57:29;;;;;;;31.73;8.38;;;;;;;10.28;82.56;100608.56;5083277;28;20149;-55
2024/01/29 02:59:56;;;;;;;29.13;8.57;;;;;;;10.29;81.61;100604.22;5075911;28;20519;-56
2024/01/29 03:02:23;;;;;;;32.20;9.32;;;;;;;10.29;82.35;100599.91;5069333;28;20479;-55
2024/01/29 03:04:49;;;;;;;23.80;7.85;;;;;;;10.30;82.33;100600.75;5077296;28;20048;-57
2024/01/29 03:07:16;;;;;;;29.33;9.73;;;;;;;10.33;81.36;100607.72;5067408;28;20048;-54
2024/01/29 03:09:43;;;;;;;28.58;8.88;;;;;;;10.34;81.90;100612.03;5068611;28;20040;-50
2024/01/29 03:12:09;;;;;;;36.25;9.25;;;;;;;10.32;82.66;100618.91;5063223;28;20067;-55
2024/01/29 03:14:36;;;;;;;36.83;9.68;;;;;;;10.33;82.03;100618.91;5067948;28;20060;-53
2024/01/29 03:17:03;;;;;;;27.25;9.13;;;;;;;10.33;81.95;100605.13;5066683;28;20041;-56
2024/01/29 03:19:30;;;;;;;32.25;8.55;;;;;;;10.34;82.49;100617.22;5069171;28;20405;-56
2024/01/29 03:21:57;;;;;;;32.17;8.90;;;;;;;10.33;81.63;100608.56;5069525;28;20139;-54
2024/01/29 03:24:24;;;;;;;26.08;8.15;;;;;;;10.35;81.59;100618.94;5068043;28;20135;-51
2024/01/29 03:26:52;;;;;;;33.05;8.30;;;;;;;10.37;81.60;100622.41;5063982;28;20052;-55
2024/01/29 03:29:20;;;;;;;20.00;7.47;;;;;;;10.37;82.65;100623.25;5068520;28;20067;-50
2024/01/29 03:31:46;;;;;;;32.67;9.30;;;;;;;10.38;82.64;100613.78;5069985;28;20131;-52
2024/01/29 03:34:13;;;;;;;28.40;9.57;;;;;;;10.37;82.30;100618.09;5055688;28;21224;-52
2024/01/29 03:36:44;;;;;;;29.50;8.77;;;;;;;10.36;82.16;100621.53;5050198;28;20057;-58
2024/01/29 03:39:11;;;;;;;32.20;9.48;;;;;;;10.39;81.75;100625.88;5042544;28;20054;-55
2024/01/29 03:41:38;;;;;;;30.40;9.23;;;;;;;10.37;82.59;100615.50;5046468;28;20060;-57
2024/01/29 03:44:05;;;;;;;24.75;8.85;;;;;;;10.36;82.66;100611.19;5065984;28;20056;-51
2024/01/29 03:46:31;;;;;;;28.33;8.70;;;;;;;10.38;82.77;100613.78;5059648;28;20051;-55
2024/01/29 03:48:58;;;;;;;34.72;9.50;;;;;;;10.37;82.82;100606.88;5063837;28;20048;-57
2024/01/29 03:51:25;;;;;;;25.90;8.07;;;;;;;10.36;82.55;100603.41;5070537;28;20509;-57
2024/01/29 03:53:52;;;;;;;26.52;9.23;;;;;;;10.34;82.45;100602.53;5068916;28;20048;-55
2024/01/29 03:56:18;;;;;;;26.05;7.60;;;;;;;10.35;82.74;100611.16;5064627;28;20056;-51
2024/01/29 03:58:46;;;;;;;33.40;9.38;;;;;;;10.36;83.06;100599.94;5060742;28;20041;-52
2024/01/29 04:01:13;;;;;;;33.83;10.10;;;;;;;10.37;82.59;100596.53;5066299;28;20048;-53
2024/01/29 04:03:40;;;;;;;26.95;7.38;;;;;;;10.37;82.56;100601.69;5068947;28;20135;-57
2024/01/29 04:06:07;;;;;;;33.65;9.20;;;;;;;10.35;82.73;100599.09;5073029;28;20523;-51
2024/01/29 04:08:34;;;;;;;30.70;8.93;;;;;;;10.38;83.04;100608.59;5070443;28;20080;-56
2024/01/29 04:11:02;;;;;;;28.27;8.82;;;;;;;10.39;82.13;100595.66;5067058;28;20072;-51
2024/01/29 04:13:29;;;;;;;27.95;8.23;;;;;;;10.39;82.79;100589.63;5068003;28;20052;-53
2024/01/29 04:15:55;;;;;;;33.75;9.85;;;;;;;10.40;83.08;100596.50;5064826;28;20123;-57
2024/01/29 04:18:23;;;;;;;31.65;9.02;;;;;;;10.39;82.74;100595.66;5072715;28;20082;-54
2024/01/29 04:20:50;;;;;;;25.85;8.93;;;;;;;10.40;82.34;100588.75;5072001;28;20049;-50
2024/01/29 04:23:17;;;;;;;29.90;9.45;;;;;;;10.40;83.53;100596.50;5072025;28;21214;-55
2024/01/29 04:25:44;;;;;;;33.75;8.35;;;;;;;10.41;83.28;100603.44;5071539;28;20123;-52
2024/01/29 04:28:11;;;;;;;32.08;9.75;;;;;;;10.41;82.52;100598.28;5067398;28;20074;-52
2024/01/29 04:30:38;;;;;;;31.00;9.88;;;;;;;10.42;82.21;100602.59;5067244;28;20505;-51
2024/01/29 04:33:04;;;;;;;25.70;7.50;;;;;;;10.41;82.63;100593.09;5069051;28;20869;-55
2024/01/29 04:35:31;;;;;;;27.73;8.32;;;;;;;10.38;82.60;100582.72;5063973;28;20420;-57
2024/01/29 04:37:58;;;;;;;28.95;9.10;;;;;;;10.36;83.04;100584.41;5063977;28;20051;-53
2024/01/29 04:40:26;;;;;;;31.85;9.95;;;;;;;10.36;83.08;100576.63;5066290;28;20063;-52
2024/01/29 04:42:53;;;;;;;27.95;8.95;;;;;;;10.34;82.46;100575.78;5066744;28;20079;-50
2024/01/29 04:45:19;;;;;;;25.73;7.88;;;;;;;10.31;83.67;100571.44;5063815;28;20048;-56
2024/01/29 04:47:46;;;;;;;21.48;6.97;;;;;;;10.27;83.50;100570.53;5070700;28;20045;-51
2024/01/29 04:50:12;;;;;;;30.48;9.00;;;;;;;10.26;83.51;100568.81;5071910;28;20047;-51
2024/01/29 04:52:39;;;;;;;27.80;9.65;;;;;;;10.26;82.79;100574.00;5066857;28;20151;-52
2024/01/29 04:55:06;;;;;;;30.50;8.18;;;;;;;10.28;82.72;100586.97;5068776;28;20059;-55
2024/01/29 04:57:34;;;;;;;30.45;8.77;;;;;;;10.29;82.96;100581.78;5075858;28;20511;-57
2024/01/29 05:00:00;;;;;;;27.65;9.70;;;;;;;10.27;83.18;100591.25;5068692;28;20067;-55
2024/01/29 05:02:27;;;;;;;32.00;8.85;;;;;;;10.29;82.51;100584.38;5061402;28;20049;-49
2024/01/29 05:04:55;;;;;;;29.25;9.73;;;;;;;10.31;83.35;100596.47;5066708;28;20691;-52
2024/01/29 05:07:22;;;;;;;28.90;8.90;;;;;;;10.31;82.62;100592.16;5058621;28;20052;-56
2024/01/29 05:09:49;;;;;;;32.00;9.30;;;;;;;10.32;83.02;100608.53;5066247;28;20063;-58
2024/01/29 05:12:16;;;;;;;34.20;9.57;;;;;;;10.31;83.08;100609.41;5066844;28;20058;-53
2024/01/29 05:14:42;;;;;;;33.15;9.88;;;;;;;10.33;82.67;100610.31;5066375;28;20131;-54
2024/01/29 05:17:09;;;;;;;32.30;9.70;;;;;;;10.32;83.38;100616.31;5070004;28;20098;-51
2024/01/29 05:19:38;;;;;;;28.50;9.48;;;;;;;10.32;82.80;100613.72;5069537;28;20068;-57
2024/01/29 05:22:05;;;;;;;34.70;8.57;;;;;;;10.33;83.52;100621.50;5069969;28;20814;-55
2024/01/29 05:24:31;;;;;;;36.17;9.63;;;;;;;10.34;83.43;100620.66;5063744;28;20048;-54
2024/01/29 05:26:58;;;;;;;35.25;9.73;;;;;;;10.34;82.88;100607.69;5070437;28;20147;-51
2024/01/29 05:29:25;;;;;;;29.90;10.50;;;;;;;10.35;83.59;100618.94;5077110;28;20040;-55
2024/01/29 05:31:52;;;;;;;36.28;9.63;;;;;;;10.35;83.36;100618.94;5066624;28;20135;-57
2024/01/29 05:34:20;;;;;;;28.65;8.90;;;;;;;10.35;83.16;100630.16;5065104;28;20490;-54
2024/01/29 05:36:47;;;;;;;42.40;10.43;;;;;;;10.37;82.72;100632.78;5059686;28;20741;-53
2024/01/29 05:39:14;;;;;;;37.83;9.82;;;;;;;10.38;82.60;100629.31;5058046;28;20106;-57
2024/01/29 05:41:41;;;;;;;39.45;10.40;;;;;;;10.38;82.95;100626.72;5064153;28;20041;-53
2024/01/29 05:44:08;;;;;;;34.47;10.77;;;;;;;10.38;83.12;100621.56;5043013;28;20806;-58
2024/01/29 05:46:35;;;;;;;31.38;9.40;;;;;;;10.37;82.80;100625.00;5049910;28;20048;-54
2024/01/29 05:49:02;;;;;;;32.67;9.10;;;;;;;10.37;83.08;100627.59;5053275;28;20056;-54
2024/01/29 05:51:29;;;;;;;43.67;9.77;;;;;;;10.35;82.93;100614.63;5048011;28;20048;-57
2024/01/29 05:53:55;;;;;;;29.70;9.80;;;;;;;10.36;83.30;100624.13;5047598;28;20049;-57
2024/01/29 05:56:23;;;;;;;33.92;9.43;;;;;;;10.36;83.00;100623.25;5047929;28;20053;-55
2024/01/29 05:58:51;;;;;;;37.28;9.65;;;;;;;10.35;82.85;100616.34;5050018;28;20041;-58
2024/01/29 06:01:17;;;;;;;34.47;10.25;;;;;;;10.34;83.43;100622.38;5037400;28;20041;-58
2024/01/29 06:03:44;;;;;;;28.70;10.27;;;;;;;10.36;83.86;100628.44;5047603;28;20050;-55
2024/01/29 06:06:11;;;;;;;22.17;7.30;;;;;;;10.37;83.50;100627.59;5050239;28;20103;-55
2024/01/29 06:08:38;;;;;;;23.00;8.20;;;;;;;10.37;82.98;100635.38;5048177;28;20041;-55
2024/01/29 06:11:05;;;;;;;34.20;10.77;;;;;;;10.39;83.32;100636.22;5047600;28;20056;-58
2024/01/29 06:13:31;;;;;;;37.83;9.18;;;;;;;10.40;83.33;100637.94;5048411;28;20049;-53
2024/01/29 06:16:00;;;;;;;33.10;10.27;;;;;;;10.41;83.85;100629.34;5045700;28;20074;-53
2024/01/29 06:18:26;;;;;;;38.70;9.32;;;;;;;10.41;82.84;100630.19;5044367;28;20057;-56
2024/01/29 06:20:53;;;;;;;38.20;10.13;;;;;;;10.41;83.36;100630.19;5040294;28;20103;-56
2024/01/29 06:23:20;;;;;;;37.42;9.40;;;;;;;10.42;84.16;100628.47;5044319;28;20045;-54
2024/01/29 06:25:47;;;;;;;36.38;10.00;;;;;;;10.43;84.22;100626.78;5048013;28;20444;-54
2024/01/29 06:28:14;;;;;;;33.25;8.98;;;;;;;10.42;84.01;100625.88;5045044;28;20044;-56
2024/01/29 06:30:41;;;;;;;38.03;8.93;;;;;;;10.43;83.69;100627.63;5047035;28;20106;-56
2024/01/29 06:33:07;;;;;;;27.48;8.10;;;;;;;10.43;83.60;100622.44;5051254;28;20080;-57
2024/01/29 06:35:34;;;;;;;36.47;10.25;;;;;;;10.43;83.75;100626.78;5053323;28;20084;-57
2024/01/29 06:38:02;;;;;;;33.72;9.60;;;;;;;10.41;83.85;100627.59;5057826;28;20045;-54
2024/01/29 06:40:29;;;;;;;38.42;8.82;;;;;;;10.41;83.16;100640.56;5049543;28;20053;-56
2024/01/29 06:42:57;;;;;;;33.45;9.20;;;;;;;10.41;83.78;100650.91;5051533;28;20045;-57
2024/01/29 06:45:24;;;;;;;37.40;9.23;;;;;;;10.43;83.34;100653.50;5039794;28;20057;-56
2024/01/29 06:47:50;;;;;;;29.30;9.80;;;;;;;10.44;82.92;100649.22;5052093;28;20049;-53
2024/01/29 06:50:17;;;;;;;34.05;9.65;;;;;;;10.44;83.36;100657.88;5057825;28;20067;-54
2024/01/29 06:52:44;;;;;;;23.65;7.78;;;;;;;10.46;83.18;100658.75;5050271;28;20041;-53
2024/01/29 06:55:11;;;;;;;32.47;10.27;;;;;;;10.48;82.80;100661.38;5052630;28;20135;-58
2024/01/29 06:57:38;;;;;;;29.80;9.30;;;;;;;10.48;83.91;100662.25;5056941;28;20132;-54
2024/01/29 07:00:06;;;;;;;40.83;10.50;;;;;;;10.50;83.74;100665.69;5055021;28;20052;-54
2024/01/29 07:02:32;;;;;;;34.28;10.00;;;;;;;10.50;83.48;100681.22;5039875;28;20152;-54
2024/01/29 07:04:59;;;;;;;24.23;7.47;;;;;;;10.50;83.94;100681.22;5048346;28;20848;-54
2024/01/29 07:07:26;;;;;;;20.40;7.43;;;;;;;10.50;83.28;100681.22;5050041;28;20067;-55
2024/01/29 07:09:54;;;;;;;27.83;8.40;;;;;;;10.50;83.68;100670.88;5044238;28;20127;-55
2024/01/29 07:12:22;;;;;;;25.90;7.57;;;;;;;10.50;82.98;100676.06;5052847;28;20044;-53
2024/01/29 07:14:49;;;;;;;21.98;7.03;;;;;;;10.52;83.86;100678.66;5048525;28;20056;-54
2024/01/29 07:17:16;;;;;;;28.35;8.15;;;;;;;10.53;83.56;100670.91;5050276;28;20494;-51
2024/01/29 07:19:44;;;;;;;28.83;8.60;;;;;;;10.53;83.57;100670.03;5047707;28;20048;-53
2024/01/29 07:22:18;;;;;;;32.90;7.88;;;;;;;10.52;83.81;100664.00;5041731;28;20586;-50
2024/01/29 07:24:46;;;;;;;21.90;7.25;;;;;;;10.49;83.04;100669.16;5049690;28;20049;-55
2024/01/29 07:27:13;;;;;;;28.52;7.72;;;;;;;10.51;83.48;100672.59;5050424;28;20522;-52
2024/01/29 07:29:39;;;;;;;25.92;7.53;;;;;;;10.51;83.51;100672.59;5048490;28;20065;-50
2024/01/29 07:32:07;;;;;;;23.13;7.03;;;;;;;10.51;83.44;100670.00;5036753;28;20102;-54
2024/01/29 07:34:33;;;;;;;16.70;6.45;;;;;;;10.48;83.52;100667.41;5047491;28;20421;-58
2024/01/29 07:37:02;;;;;;;25.45;6.60;;;;;;;10.49;83.94;100671.72;5038732;28;20049;-49
2024/01/29 07:39:29;;;;;;;26.00;8.63;;;;;;;10.50;84.14;100663.09;5040341;28;20056;-50
2024/01/29 07:41:56;;;;;;;19.58;7.35;;;;;;;10.48;83.47;100662.25;5045738;28;20138;-54
2024/01/29 07:44:23;;;;;;;27.52;8.02;;;;;;;10.46;83.84;100657.88;5046890;28;20059;-51
2024/01/29 07:46:50;;;;;;;28.85;8.65;;;;;;;10.50;83.64;100650.16;5041343;28;20075;-54
2024/01/29 07:49:16;;;;;;;25.48;9.43;;;;;;;10.44;83.74;100649.22;5039953;28;20056;-54
2024/01/29 07:51:43;;;;;;;30.02;9.50;;;;;;;10.43;83.51;100653.50;5037094;28;20059;-51
2024/01/29 07:54:13;;;;;;;29.73;8.65;;;;;;;10.43;84.28;100648.34;5035075;28;20049;-53
2024/01/29 07:56:41;;;;;;;21.90;7.65;;;;;;;10.39;83.83;100651.75;5034609;28;20095;-51
2024/01/29 07:59:08;;;;;;;33.60;8.93;;;;;;;10.41;83.34;100650.06;5041274;28;20049;-56
2024/01/29 08:01:35;;;;;;;24.92;8.38;;;;;;;10.37;83.52;100649.16;5039517;28;20114;-52
2024/01/29 08:04:03;;;;;;;20.75;7.80;;;;;;;10.34;83.95;100648.28;5040236;28;20502;-55
2024/01/29 08:06:31;;;;;;;30.17;6.65;;;;;;;10.36;83.95;100664.69;5031962;28;20053;-54
2024/01/29 08:08:58;;;;;;;31.13;9.90;;;;;;;10.34;84.33;100658.63;5032209;28;20057;-53
2024/01/29 08:11:27;;;;;;;28.45;9.55;;;;;;;10.35;83.59;100652.59;5037667;28;20049;-55
2024/01/29 08:13:53;;;;;;;23.95;9.00;;;;;;;10.33;84.18;100631.00;5040971;28;20398;-52
2024/01/29 08:16:20;;;;;;;22.10;6.57;;;;;;;10.29;84.65;100618.03;5034409;28;20145;-53
2024/01/29 08:18:47;;;;;;;33.15;9.18;;;;;;;10.31;83.65;100601.66;5037313;28;20048;-57
2024/01/29 08:21:14;;;;;;;21.98;7.53;;;;;;;10.23;84.56;100594.69;5036688;28;20828;-57
2024/01/29 08:23:41;;;;;;;18.50;5.68;;;;;;;10.21;85.06;100614.53;5037809;28;20452;-55
2024/01/29 08:26:07;;;;;;;25.00;6.60;;;;;;;10.21;85.13;100622.28;5032258;28;20049;-57
2024/01/29 08:28:34;;;;;;;20.10;8.18;;;;;;;10.22;84.61;100626.59;5037291;28;20709;-52
2024/01/29 08:31:01;;;;;;;15.50;7.43;;;;;;;10.16;86.09;100606.72;5038395;28;20143;-53
2024/01/29 08:33:29;;;;;;;11.63;5.05;;;;;;;10.14;85.99;100610.16;5040348;28;20049;-52
2024/01/29 08:35:56;;;;;;;19.33;7.07;;;;;;;10.16;86.45;100642.06;5036062;28;20544;-57
2024/01/29 08:38:24;;;;;;;19.40;6.70;;;;;;;10.14;86.35;100643.81;5035760;28;20049;-51
2024/01/29 08:40:55;;;;;;;16.30;5.53;;;;;;;10.18;85.96;100642.97;5032330;28;20048;-55
2024/01/29 08:43:22;;;;;;;15.00;7.07;;;;;;;10.22;86.51;100662.84;5038589;28;20052;-54
2024/01/29 08:45:49;;;;;;;32.78;10.20;;;;;;;10.26;85.44;100668.91;5041791;28;20505;-54
2024/01/29 08:48:16;;;;;;;31.67;9.13;;;;;;;10.27;86.01;100670.66;5050365;28;20055;-52
2024/01/29 08:50:42;;;;;;;26.20;8.00;;;;;;;10.29;85.37;100682.78;5037485;28;20587;-54
2024/01/29 08:53:09;;;;;;;25.45;9.68;;;;;;;10.32;85.67;100681.03;5043635;28;20053;-58
2024/01/29 08:55:36;;;;;;;16.75;6.00;;;;;;;10.35;85.00;100688.84;5045861;28;20049;-58
2024/01/29 08:58:03;;;;;;;18.65;6.85;;;;;;;10.35;85.82;100691.44;5051969;28;20082;-51
2024/01/29 09:00:32;;;;;;;14.75;5.60;;;;;;;10.35;86.24;100696.63;5041716;28;20081;-56
2024/01/29 09:02:59;;;;;;;15.40;6.82;;;;;;;10.31;85.79;100706.09;5034998;28;20051;-54
2024/01/29 09:05:25;;;;;;;9.70;4.40;;;;;;;10.32;86.58;100709.53;5043798;28;20057;-53
2024/01/29 09:07:52;;;;;;;16.15;6.00;;;;;;;10.36;86.22;100706.09;5045200;28;20048;-53
2024/01/29 09:10:20;;;;;;;23.60;7.78;;;;;;;10.35;85.84;100704.38;5046894;28;20049;-50
2024/01/29 09:12:47;;;;;;;23.83;7.50;;;;;;;10.40;86.02;100711.34;5040079;28;20094;-52
2024/01/29 09:15:15;;;;;;;21.17;6.28;;;;;;;10.42;86.17;100706.16;5039647;28;20055;-53
2024/01/29 09:17:43;;;;;;;21.60;6.68;;;;;;;10.45;85.38;100714.00;5042673;28;20052;-56
2024/01/29 09:20:13;;;;;;;15.35;6.32;;;;;;;10.44;85.99;100707.06;5040971;28;20111;-51
2024/01/29 09:22:41;;;;;;;13.80;5.38;;;;;;;10.43;86.23;100710.50;5038063;28;20144;-57
2024/01/29 09:25:08;;;;;;;22.88;6.20;;;;;;;10.44;86.15;100711.38;5039398;28;20045;-53
2024/01/29 09:27:35;;;;;;;12.85;5.15;;;;;;;10.46;86.37;100710.56;5044118;28;20650;-52
2024/01/29 09:30:05;;;;;;;9.15;3.38;;;;;;;10.47;86.61;100696.75;5043225;28;20128;-55
2024/01/29 09:32:32;;;;;;;13.57;5.78;;;;;;;10.49;85.79;100715.75;5044043;28;20144;-54
2024/01/29 09:34:59;;;;;;;15.30;6.25;;;;;;;10.52;85.76;100710.63;5045743;28;20052;-55
2024/01/29 09:37:26;;;;;;;14.95;5.53;;;;;;;10.56;86.19;100700.25;5037453;28;20076;-53
2024/01/29 09:39:53;;;;;;;18.67;7.38;;;;;;;10.57;85.84;100700.28;5035671;28;20056;-56
2024/01/29 09:42:28;;;;;;;28.27;5.70;;;;;;;10.57;86.52;100700.28;5035401;28;20053;-56
2024/01/29 09:44:59;;;;;;;;;;;;;;;10.52;86.13;100699.38;5053080;28;20049;-53
2024/01/29 09:47:27;;;;;;;17.38;6.32;;;;;;;10.58;86.99;100703.75;5037578;28;19924;-54
2024/01/29 09:49:55;;;;;;;12.85;6.15;;;;;;;10.61;86.00;100708.94;5049599;28;20129;-58
2024/01/29 09:52:22;;;;;;;14.65;4.70;;;;;;;10.61;85.86;100698.59;5046781;28;20532;-51
2024/01/29 09:54:51;;;;;;;11.38;5.40;;;;;;;10.65;86.76;100700.34;5041032;28;20060;-49
2024/01/29 09:57:18;;;;;;;27.65;8.18;;;;;;;10.68;85.66;100697.78;5036344;28;20128;-57
2024/01/29 09:59:44;;;;;;;22.10;8.00;;;;;;;10.72;85.51;100699.53;5043794;28;20402;-55
2024/01/29 10:02:14;;;;;;;29.25;8.18;;;;;;;10.77;84.97;100705.59;5040693;28;20045;-54
2024/01/29 10:04:41;;;;;;;17.88;6.07;;;;;;;10.78;85.58;100696.97;5043803;28;20063;-57
2024/01/29 10:07:10;;;;;;;27.13;7.57;;;;;;;10.80;85.03;100695.28;5043278;28;20222;-57
2024/01/29 10:09:37;;;;;;;27.60;6.60;;;;;;;10.85;84.96;100691.84;5043032;28;20145;-55
2024/01/29 10:12:04;;;;;;;20.23;7.47;;;;;;;10.91;85.88;100686.72;5042726;28;20123;-53
2024/01/29 10:14:32;;;;;;;25.48;9.43;;;;;;;10.92;85.45;100688.44;5049055;28;20065;-54
2024/01/29 10:16:59;;;;;;;22.05;6.82;;;;;;;10.92;84.67;100691.03;5045055;28;20049;-54
2024/01/29 10:19:36;;;;;;;18.75;6.32;;;;;;;10.87;85.01;100684.94;5043329;28;20110;-56
2024/01/29 10:22:03;;;;;;;21.08;7.90;;;;;;;10.93;85.79;100679.78;5041195;28;20143;-57
2024/01/29 10:24:31;;;;;;;20.50;7.20;;;;;;;10.97;84.55;100694.50;5037114;28;20425;-56
2024/01/29 10:27:05;;;;;;;20.88;7.28;;;;;;;10.97;85.24;100693.66;5041807;28;20127;-56
2024/01/29 10:29:34;;;;;;;26.10;7.53;;;;;;;11.01;84.22;100698.84;5042212;28;20513;-55
2024/01/29 10:32:01;;;;;;;19.17;6.22;;;;;;;10.97;84.65;100697.09;5044714;28;20079;-57
2024/01/29 10:34:28;;;;;;;25.58;8.38;;;;;;;11.01;84.58;100693.66;5053137;28;20150;-56
2024/01/29 10:36:57;;;;;;;27.55;8.20;;;;;;;11.06;84.86;100696.28;5040598;28;20059;-56
2024/01/29 10:39:27;;;;;;;26.00;8.68;;;;;;;11.01;85.18;100693.66;5046455;28;20146;-57
2024/01/29 10:41:56;;;;;;;17.13;6.32;;;;;;;11.05;84.41;100695.41;5041949;28;20083;-54
2024/01/29 10:44:26;;;;;;;20.15;6.28;;;;;;;11.08;84.19;100691.13;5045613;28;20068;-57
2024/01/29 10:46:58;;;;;;;27.33;7.93;;;;;;;11.11;85.32;100693.72;5047299;28;20053;-57
2024/01/29 10:49:28;;;;;;;14.90;5.45;;;;;;;11.11;85.31;100701.50;5037723;28;20048;-58
2024/01/29 10:51:58;;;;;;;26.02;7.90;;;;;;;11.13;84.75;100697.19;5041358;28;20048;-57
2024/01/29 10:54:26;;;;;;;18.48;5.13;;;;;;;11.14;84.87;100704.09;5041306;28;20128;-55
2024/01/29 10:56:53;;;;;;;19.65;8.05;;;;;;;11.15;84.20;100700.66;5048155;28;20081;-56
2024/01/29 10:59:23;;;;;;;18.75;7.25;;;;;;;11.22;83.82;100706.75;5046312;28;20478;-56
2024/01/29 11:01:52;;;;;;;21.38;6.60;;;;;;;11.23;83.62;100701.56;5030598;28;20429;-53
2024/01/29 11:04:30;;;;;;;21.00;7.93;;;;;;;11.23;83.99;100704.16;5047704;28;20059;-56
2024/01/29 11:07:06;;;;;;;17.95;6.03;;;;;;;11.22;84.40;100701.56;5051305;28;20049;-54
2024/01/29 11:09:34;;;;;;;29.77;7.13;;;;;;;11.24;84.64;100700.69;5045158;28;20052;-58
2024/01/29 11:12:01;;;;;;;21.95;7.25;;;;;;;11.29;84.22;100701.56;5045653;28;20057;-54
2024/01/29 11:14:31;;;;;;;18.88;7.32;;;;;;;11.32;83.38;100699.00;5059343;28;20048;-53
2024/01/29 11:16:58;;;;;;;22.15;7.45;;;;;;;11.30;84.03;100690.38;5046966;28;20045;-57
2024/01/29 11:19:26;;;;;;;33.45;9.00;;;;;;;11.36;84.62;100683.47;5047757;28;20516;-58